METAR Formatted Surface Weather Observation
Issued by NWS

Home | Current Version | Previous Version | Text Only | Print | Product List | Glossary On
Versions: 1 2 3 4 5 6
000
SAUS41 KGYX 272256
MTRNKT
METAR KNKT 272254Z 21011G20KT 10SM CLR 24/17 A2993 RMK AO2 SLP132
T02440167



USA.gov is the U.S. government's official web portal to all federal, state and local government web resources and services.